createdAt,value
2018-11-01T00:00:50.571Z,0.188
2018-11-01T00:02:50.282Z,0.245
2018-11-01T00:04:50.774Z,0.194
2018-11-01T00:06:50.192Z,0.188
2018-11-01T00:08:50.364Z,0.228
2018-11-01T00:10:50.448Z,0.251
2018-11-01T00:12:50.725Z,0.314
2018-11-01T00:14:49.989Z,0.200
2018-11-01T00:16:50.280Z,0.205
2018-11-01T00:18:50.514Z,0.262
2018-11-01T00:20:50.626Z,0.262
2018-11-01T00:22:49.932Z,0.239
2018-11-01T00:24:50.088Z,0.154
2018-11-01T00:26:50.581Z,0.211
2018-11-01T00:28:49.868Z,0.257
2018-11-01T00:30:50.055Z,0.234
2018-11-01T00:32:50.260Z,0.217
2018-11-01T00:34:49.815Z,0.279
2018-11-01T00:36:50.157Z,0.234
2018-11-01T00:38:50.325Z,0.165
2018-11-01T00:40:50.536Z,0.217
2018-11-01T00:42:50.712Z,0.194
2018-11-01T00:44:49.905Z,0.217
2018-11-01T00:46:50.398Z,0.177
2018-11-01T00:48:50.508Z,0.245
2018-11-01T00:50:50.739Z,0.171
2018-11-01T00:52:49.947Z,0.211
2018-11-01T00:54:50.119Z,0.171
2018-11-01T00:56:50.536Z,0.251
2018-11-01T00:58:50.659Z,0.234
2018-11-01T01:00:49.859Z,0.148
2018-11-01T01:02:50.061Z,0.211
2018-11-01T01:04:50.657Z,0.194
2018-11-01T01:06:50.097Z,0.245
2018-11-01T01:08:50.342Z,0.171
2018-11-01T01:10:50.526Z,0.171
2018-11-01T01:12:50.681Z,0.257
2018-11-01T01:14:49.848Z,0.251
2018-11-01T01:16:50.238Z,0.200
2018-11-01T01:18:50.813Z,0.245
2018-11-01T01:20:50.161Z,0.165
2018-11-01T01:22:50.268Z,0.234
2018-11-01T01:24:50.393Z,0.319
2018-11-01T01:26:50.830Z,0.182
2018-11-01T01:28:49.950Z,0.228
2018-11-01T01:30:50.132Z,0.182
2018-11-01T01:32:50.276Z,0.182
2018-11-01T01:34:49.797Z,0.194
2018-11-01T01:36:50.171Z,0.228
2018-11-01T01:38:50.325Z,0.148
2018-11-01T01:40:50.589Z,0.211
2018-11-01T01:42:49.833Z,0.234
2018-11-01T01:44:50.017Z,0.234
2018-11-01T01:46:50.437Z,0.205
2018-11-01T01:48:50.567Z,0.205
2018-11-01T01:50:50.591Z,0.182
2018-11-01T01:52:50.055Z,0.182
2018-11-01T01:54:50.274Z,0.211
2018-11-01T01:56:50.610Z,0.319
2018-11-01T01:58:49.783Z,0.211
2018-11-01T02:00:50.035Z,0.302
2018-11-01T02:02:50.302Z,0.234
2018-11-01T02:04:50.658Z,0.194
2018-11-01T02:06:50.108Z,0.200
2018-11-01T02:08:50.245Z,0.228
2018-11-01T02:10:50.473Z,0.194
2018-11-01T02:12:50.779Z,0.274
2018-11-01T02:14:50.011Z,0.370
2018-11-01T02:16:50.397Z,0.296
2018-11-01T02:18:50.675Z,0.200
2018-11-01T02:20:49.928Z,0.285
2018-11-01T02:22:50.434Z,0.410
2018-11-01T02:24:49.794Z,0.279
2018-11-01T02:26:50.275Z,0.519
2018-11-01T02:28:50.535Z,0.798
2018-11-01T02:30:49.841Z,0.599
2018-11-01T02:32:50.115Z,0.604
2018-11-01T02:34:50.755Z,0.587
2018-11-01T02:36:50.211Z,0.405
2018-11-01T02:38:51.132Z,0.405
2018-11-01T02:40:49.814Z,0.564
2018-11-01T02:42:50.097Z,0.815
2018-11-01T02:44:50.284Z,0.832
2018-11-01T02:46:50.755Z,0.604
2018-11-01T02:48:49.967Z,0.844
2018-11-01T02:50:50.132Z,0.610
2018-11-01T02:52:50.302Z,0.713
2018-11-01T02:54:50.422Z,0.599
2018-11-01T02:56:50.651Z,0.416
2018-11-01T02:58:49.965Z,0.627
2018-11-01T03:00:50.177Z,0.610
2018-11-01T03:02:50.402Z,0.365
2018-11-01T03:04:49.867Z,0.439
2018-11-01T03:06:50.216Z,0.684
2018-11-01T03:08:50.574Z,0.370
2018-11-01T03:10:49.828Z,0.610
2018-11-01T03:12:50.121Z,0.633
2018-11-01T03:14:50.374Z,0.633
2018-11-01T03:16:50.773Z,0.621
2018-11-01T03:18:50.173Z,0.621
2018-11-01T03:20:50.338Z,0.559
2018-11-01T03:22:50.602Z,0.610
2018-11-01T03:24:49.853Z,0.844
2018-11-01T03:26:50.198Z,0.541
2018-11-01T03:28:50.362Z,0.633
2018-11-01T03:30:50.505Z,0.650
2018-11-01T03:32:49.871Z,0.633
2018-11-01T03:34:50.492Z,0.667
2018-11-01T03:36:49.890Z,0.576
2018-11-01T03:38:50.509Z,0.576
2018-11-01T03:40:50.127Z,0.661
2018-11-01T03:42:50.369Z,0.621
2018-11-01T03:44:50.547Z,0.633
2018-11-01T03:46:50.066Z,0.599
2018-11-01T03:48:50.297Z,0.599
2018-11-01T03:52:50.477Z,0.650
2018-11-01T03:54:50.606Z,0.735
2018-11-01T03:56:49.981Z,0.655
2018-11-01T03:58:50.146Z,0.610
2018-11-01T04:00:50.331Z,0.462
2018-11-01T04:02:50.509Z,0.638
2018-11-01T04:04:50.005Z,0.741
2018-11-01T04:06:50.451Z,0.496
2018-11-01T04:08:50.621Z,0.604
2018-11-01T04:10:49.936Z,0.621
2018-11-01T04:12:50.120Z,0.730
2018-11-01T04:14:50.539Z,0.627
2018-11-01T04:16:50.508Z,0.587
2018-11-01T04:18:50.022Z,0.667
2018-11-01T04:20:50.243Z,0.633
2018-11-01T04:22:50.517Z,0.655
2018-11-01T04:24:50.771Z,0.410
2018-11-01T04:26:50.256Z,0.684
2018-11-01T04:28:50.585Z,0.695
2018-11-01T04:30:49.825Z,0.701
2018-11-01T04:32:50.244Z,0.792
2018-11-01T04:34:49.897Z,0.701
2018-11-01T04:36:50.369Z,0.747
2018-11-01T04:38:50.545Z,174.956
2018-11-01T04:40:49.889Z,180.137
2018-11-01T04:42:50.144Z,455.555
2018-11-01T04:44:50.616Z,527.421
2018-11-01T04:46:50.200Z,747.088
2018-11-01T04:48:50.423Z,747.088
2018-11-01T04:50:50.622Z,747.088
2018-11-01T04:52:49.810Z,747.088
2018-11-01T04:54:50.021Z,747.088
2018-11-01T04:56:50.514Z,747.088
2018-11-01T04:58:50.736Z,747.088
2018-11-01T05:00:49.945Z,747.088
2018-11-01T05:02:50.166Z,747.088
2018-11-01T05:04:50.850Z,747.088
2018-11-01T05:06:50.612Z,747.088
2018-11-01T05:08:49.970Z,747.088
2018-11-01T05:10:50.153Z,747.088
2018-11-01T05:12:50.424Z,747.088
2018-11-01T05:14:49.769Z,747.088
2018-11-01T05:16:50.189Z,747.088
2018-11-01T05:18:50.374Z,747.088
2018-11-01T05:20:50.617Z,747.088
2018-11-01T05:22:49.813Z,747.088
2018-11-01T05:24:50.018Z,747.088
2018-11-01T05:26:50.726Z,747.088
2018-11-01T05:28:49.994Z,747.088
2018-11-01T05:30:50.166Z,747.088
2018-11-01T05:32:50.380Z,747.088
2018-11-01T05:34:49.928Z,747.088
2018-11-01T05:36:50.317Z,747.088
2018-11-01T05:38:50.468Z,747.088
2018-11-01T05:40:50.631Z,747.088
2018-11-01T05:42:49.837Z,747.088
2018-11-01T05:44:50.045Z,747.088
2018-11-01T05:46:50.439Z,747.088
2018-11-01T05:48:50.696Z,747.088
2018-11-01T05:50:49.813Z,747.088
2018-11-01T05:52:50.077Z,747.088
2018-11-01T05:54:50.254Z,747.088
2018-11-01T05:56:50.674Z,747.088
2018-11-01T05:58:50.000Z,747.088
2018-11-01T06:00:50.245Z,747.088
2018-11-01T06:02:50.488Z,747.088
2018-11-01T06:04:50.091Z,747.088
2018-11-01T06:06:50.458Z,747.088
2018-11-01T06:08:50.614Z,747.088
2018-11-01T06:10:50.816Z,747.088
2018-11-01T06:12:49.974Z,747.088
2018-11-01T06:14:50.125Z,747.088
2018-11-01T06:16:50.389Z,747.088
2018-11-01T06:18:50.565Z,747.088
2018-11-01T06:20:49.934Z,747.088
2018-11-01T06:22:50.150Z,747.088
2018-11-01T06:24:50.341Z,747.088
2018-11-01T06:26:49.816Z,747.088
2018-11-01T06:28:50.011Z,747.088
2018-11-01T06:30:50.181Z,747.088
2018-11-01T06:32:50.365Z,747.088
2018-11-01T06:34:49.966Z,747.088
2018-11-01T06:36:49.905Z,747.088
2018-11-01T06:38:50.093Z,747.088
2018-11-01T06:40:50.304Z,747.088
2018-11-01T06:42:50.505Z,747.088
2018-11-01T06:44:51.153Z,747.088
2018-11-01T06:46:49.809Z,747.088
2018-11-01T06:48:50.069Z,747.088
2018-11-01T06:50:50.229Z,747.088
2018-11-01T06:52:50.389Z,747.088
2018-11-01T06:54:50.646Z,747.088
2018-11-01T06:56:50.084Z,747.088
2018-11-01T06:58:50.832Z,747.088
2018-11-01T07:00:50.265Z,747.088
2018-11-01T07:02:50.454Z,747.088
2018-11-01T07:04:49.882Z,747.088
2018-11-01T07:06:50.286Z,0.730
2018-11-01T07:08:50.528Z,0.741
2018-11-01T07:10:50.723Z,0.827
2018-11-01T07:12:49.920Z,0.604
2018-11-01T07:14:50.089Z,0.638
2018-11-01T07:16:50.702Z,0.684
2018-11-01T07:18:50.016Z,0.718
2018-11-01T07:20:50.198Z,0.764
2018-11-01T07:22:50.362Z,0.764
2018-11-01T07:24:50.504Z,0.473
2018-11-01T07:26:50.109Z,0.963
2018-11-01T07:28:50.341Z,0.713
2018-11-01T07:30:50.564Z,0.587
2018-11-01T07:32:51.875Z,0.427
2018-11-01T07:34:49.915Z,0.427
2018-11-01T07:36:50.278Z,0.707
2018-11-01T07:38:50.406Z,0.627
2018-11-01T07:40:50.644Z,0.593
2018-11-01T07:42:49.920Z,0.821
2018-11-01T07:44:50.139Z,0.576
2018-11-01T07:46:50.404Z,0.644
2018-11-01T07:48:50.990Z,0.707
2018-11-01T07:50:50.187Z,0.730
2018-11-01T07:52:50.859Z,0.553
2018-11-01T07:54:50.375Z,0.559
2018-11-01T07:56:50.657Z,0.610
2018-11-01T07:58:49.883Z,0.690
2018-11-01T08:00:50.051Z,0.650
2018-11-01T08:02:50.241Z,0.530
2018-11-01T08:04:49.856Z,0.530
2018-11-01T08:06:50.178Z,0.382
2018-11-01T08:08:50.351Z,0.610
2018-11-01T08:10:50.509Z,0.610
2018-11-01T08:12:50.708Z,0.661
2018-11-01T08:14:49.868Z,0.730
2018-11-01T08:16:50.203Z,0.610
2018-11-01T08:18:50.427Z,0.541
2018-11-01T08:20:51.554Z,0.621
2018-11-01T08:22:50.257Z,0.655
2018-11-01T08:24:50.429Z,0.638
2018-11-01T08:26:49.816Z,0.570
2018-11-01T08:28:50.083Z,0.524
2018-11-01T08:30:50.330Z,0.490
2018-11-01T08:32:50.595Z,0.467
2018-11-01T08:34:50.005Z,0.467
2018-11-01T08:36:50.441Z,0.547
2018-11-01T08:38:50.487Z,0.513
2018-11-01T08:40:50.890Z,0.445
2018-11-01T08:42:50.186Z,0.291
2018-11-01T08:44:50.325Z,0.450
2018-11-01T08:46:50.622Z,0.450
2018-11-01T08:48:49.834Z,0.285
2018-11-01T08:50:50.019Z,0.427
2018-11-01T08:52:50.178Z,0.370
2018-11-01T08:54:50.300Z,0.433
2018-11-01T08:56:50.617Z,0.325
2018-11-01T08:58:49.807Z,0.274
2018-11-01T09:00:49.952Z,0.445
2018-11-01T09:02:50.102Z,0.314
2018-11-01T09:04:50.566Z,0.365
2018-11-01T09:06:49.962Z,0.302
2018-11-01T09:08:50.159Z,0.200
2018-11-01T09:10:50.254Z,0.222
2018-11-01T09:12:51.318Z,0.228
2018-11-01T09:14:49.980Z,0.222
2018-11-01T09:16:50.370Z,0.262
2018-11-01T09:18:50.557Z,0.211
2018-11-01T09:20:50.694Z,0.182
2018-11-01T09:22:49.966Z,0.268
2018-11-01T09:24:50.039Z,0.239
2018-11-01T09:26:50.822Z,0.274
2018-11-01T09:28:50.182Z,0.182
2018-11-01T09:30:50.409Z,0.245
2018-11-01T09:32:50.725Z,0.268
2018-11-01T09:34:50.379Z,0.211
2018-11-01T09:36:50.707Z,0.251
2018-11-01T09:38:49.858Z,0.222
2018-11-01T09:40:49.999Z,0.182
2018-11-01T09:42:50.229Z,0.182
2018-11-01T09:44:50.391Z,0.279
2018-11-01T09:46:52.874Z,0.211
2018-11-01T09:48:50.452Z,0.217
2018-11-01T09:50:50.574Z,0.165
2018-11-01T09:52:49.813Z,0.228
2018-11-01T09:54:49.949Z,0.171
2018-11-01T09:56:50.400Z,0.211
2018-11-01T09:58:50.518Z,0.217
2018-11-01T10:00:50.941Z,0.217
2018-11-01T10:02:50.139Z,0.251
2018-11-01T10:04:50.613Z,0.228
2018-11-01T10:06:50.340Z,0.222
2018-11-01T10:08:50.766Z,0.200
2018-11-01T10:10:49.938Z,0.188
2018-11-01T10:12:50.091Z,0.279
2018-11-01T10:14:50.239Z,0.205
2018-11-01T10:16:52.803Z,0.165
2018-11-01T10:18:49.923Z,0.188
2018-11-01T10:20:50.101Z,0.205
2018-11-01T10:22:51.017Z,0.245
2018-11-01T10:24:50.306Z,0.211
2018-11-01T10:26:50.665Z,0.222
2018-11-01T10:28:49.941Z,0.182
2018-11-01T10:30:50.129Z,0.222
2018-11-01T10:32:50.299Z,0.200
2018-11-01T10:34:49.808Z,0.234
2018-11-01T10:36:50.125Z,0.200
2018-11-01T10:38:50.272Z,0.251
2018-11-01T10:40:51.042Z,0.205
2018-11-01T10:42:50.613Z,0.205
2018-11-01T10:44:49.834Z,0.257
2018-11-01T10:46:50.168Z,0.160
2018-11-01T10:48:50.369Z,0.222
2018-11-01T10:50:50.506Z,0.171
2018-11-01T10:52:50.584Z,0.171
2018-11-01T10:54:50.790Z,0.222
2018-11-01T10:56:50.149Z,0.200
2018-11-01T10:58:50.351Z,0.194
2018-11-01T11:00:51.565Z,0.194
2018-11-01T11:02:50.381Z,0.171
2018-11-01T11:04:50.118Z,0.228
2018-11-01T11:06:50.460Z,0.228
2018-11-01T11:08:50.612Z,0.211
2018-11-01T11:10:49.871Z,0.200
2018-11-01T11:12:49.953Z,0.160
2018-11-01T11:14:50.275Z,0.302
2018-11-01T11:16:50.747Z,0.217
2018-11-01T11:18:49.997Z,0.217
2018-11-01T11:20:53.078Z,0.211
2018-11-01T11:22:50.595Z,0.211
2018-11-01T11:24:49.797Z,0.205
2018-11-01T11:26:50.164Z,0.182
2018-11-01T11:28:50.327Z,0.194
2018-11-01T11:30:50.432Z,0.234
2018-11-01T11:32:50.581Z,0.211
2018-11-01T11:34:50.194Z,0.160
2018-11-01T11:36:50.458Z,0.211
2018-11-01T11:38:50.901Z,0.251
2018-11-01T11:40:50.168Z,0.251
2018-11-01T11:42:50.353Z,0.251
2018-11-01T11:44:50.513Z,0.222
2018-11-01T11:46:49.882Z,0.143
2018-11-01T11:48:50.010Z,0.257
2018-11-01T11:50:50.245Z,0.188
2018-11-01T11:52:50.430Z,0.200
2018-11-01T11:54:50.555Z,0.211
2018-11-01T11:56:50.311Z,0.211
2018-11-01T11:58:50.679Z,0.296
2018-11-01T12:00:49.889Z,0.200
2018-11-01T12:02:50.123Z,0.182
2018-11-01T12:04:50.577Z,0.239
2018-11-01T12:06:49.910Z,0.165
2018-11-01T12:08:50.158Z,0.177
2018-11-01T12:10:50.292Z,0.222
2018-11-01T12:12:50.410Z,0.222
2018-11-01T12:14:50.613Z,0.257
2018-11-01T12:16:50.030Z,0.165
2018-11-01T12:18:50.205Z,0.165
2018-11-01T12:20:50.339Z,0.228
2018-11-01T12:22:50.490Z,0.222
2018-11-01T12:24:50.669Z,0.200
2018-11-01T12:26:50.120Z,0.222
2018-11-01T12:28:50.551Z,0.194
2018-11-01T12:30:50.043Z,0.177
2018-11-01T12:32:50.288Z,0.188
2018-11-01T12:34:50.708Z,0.251
2018-11-01T12:36:50.096Z,0.251
2018-11-01T12:38:50.323Z,0.182
2018-11-01T12:40:50.450Z,0.182
2018-11-01T12:42:50.633Z,0.177
2018-11-01T12:44:49.818Z,0.177
2018-11-01T12:46:50.168Z,0.154
2018-11-01T12:48:50.373Z,0.177
2018-11-01T12:50:50.587Z,0.171
2018-11-01T12:52:50.762Z,0.137
2018-11-01T12:54:49.941Z,0.165
2018-11-01T12:56:50.307Z,0.148
2018-11-01T12:58:50.384Z,0.296
2018-11-01T13:00:50.595Z,0.217
2018-11-01T13:02:50.763Z,0.171
2018-11-01T13:04:50.449Z,0.228
2018-11-01T13:06:50.731Z,0.205
2018-11-01T13:08:49.976Z,0.188
2018-11-01T13:10:51.055Z,0.114
2018-11-01T13:12:50.716Z,0.217
2018-11-01T13:14:49.941Z,0.160
2018-11-01T13:16:50.309Z,0.131
2018-11-01T13:18:50.519Z,0.188
2018-11-01T13:20:50.748Z,0.177
2018-11-01T13:22:50.056Z,0.188
2018-11-01T13:24:50.280Z,0.137
2018-11-01T13:26:50.645Z,0.154
2018-11-01T13:28:49.887Z,0.194
2018-11-01T13:30:50.076Z,0.171
2018-11-01T13:32:50.228Z,0.194
2018-11-01T13:34:51.635Z,0.205
2018-11-01T13:36:50.289Z,0.217
2018-11-01T13:38:50.527Z,0.165
2018-11-01T13:40:54.215Z,0.125
2018-11-01T13:42:50.282Z,0.177
2018-11-01T13:44:50.420Z,0.194
2018-11-01T13:46:49.906Z,0.177
2018-11-01T13:48:50.145Z,0.194
2018-11-01T13:50:50.287Z,0.228
2018-11-01T13:52:50.480Z,0.143
2018-11-01T13:54:51.425Z,0.182
2018-11-01T13:56:50.338Z,0.182
2018-11-01T13:58:50.558Z,0.205
2018-11-01T14:00:50.708Z,0.165
2018-11-01T14:02:49.942Z,0.137
2018-11-01T14:04:50.404Z,0.137
2018-11-01T14:06:49.840Z,0.194
2018-11-01T14:08:49.994Z,0.194
2018-11-01T14:10:50.172Z,0.188
2018-11-01T14:12:50.282Z,0.148
2018-11-01T14:14:53.117Z,0.222
2018-11-01T14:16:50.308Z,0.205
2018-11-01T14:18:50.422Z,0.182
2018-11-01T14:20:50.634Z,0.160
2018-11-01T14:22:50.785Z,0.160
2018-11-01T14:24:49.989Z,0.160
2018-11-01T14:26:50.313Z,0.160
2018-11-01T14:28:50.452Z,0.143
2018-11-01T14:30:50.855Z,0.194
2018-11-01T14:32:50.163Z,0.154
2018-11-01T14:34:50.731Z,0.131
2018-11-01T14:36:50.045Z,0.234
2018-11-01T14:38:50.219Z,0.171
2018-11-01T14:40:50.354Z,0.143
2018-11-01T14:42:50.546Z,0.125
2018-11-01T14:44:50.657Z,0.160
2018-11-01T14:46:50.108Z,0.137
2018-11-01T14:48:50.340Z,0.188
2018-11-01T14:50:50.577Z,0.205
2018-11-01T14:52:54.825Z,0.188
2018-11-01T14:54:57.621Z,0.182
2018-11-01T14:56:59.760Z,0.154
2018-11-01T14:59:00.135Z,0.200
2018-11-01T15:00:50.389Z,0.171
2018-11-01T15:02:50.638Z,0.171
2018-11-01T15:04:50.159Z,0.160
2018-11-01T15:06:51.422Z,0.154
2018-11-01T15:08:50.685Z,0.200
2018-11-01T15:10:49.905Z,0.217
2018-11-01T15:12:50.169Z,0.200
2018-11-01T15:14:50.460Z,0.188
2018-11-01T15:16:49.817Z,0.114
2018-11-01T15:18:50.110Z,0.182
2018-11-01T15:20:50.384Z,0.234
2018-11-01T15:22:50.520Z,0.211
2018-11-01T15:24:50.733Z,0.188
2018-11-01T15:26:50.050Z,0.239
2018-11-01T15:28:50.208Z,0.137
2018-11-01T15:30:50.361Z,0.188
2018-11-01T15:32:50.697Z,0.160
2018-11-01T15:34:50.175Z,0.188
2018-11-01T15:36:50.602Z,0.160
2018-11-01T15:38:50.837Z,0.194
2018-11-01T15:40:49.997Z,0.182
2018-11-01T15:42:50.192Z,0.194
2018-11-01T15:44:50.362Z,0.222
2018-11-01T15:46:49.886Z,0.177
2018-11-01T15:48:50.111Z,0.177
2018-11-01T15:50:50.304Z,0.194
2018-11-01T15:52:50.546Z,0.200
2018-11-01T15:54:50.796Z,0.125
2018-11-01T15:56:50.227Z,0.177
2018-11-01T15:58:50.388Z,0.217
2018-11-01T16:00:50.594Z,0.188
2018-11-01T16:02:49.840Z,0.228
2018-11-01T16:04:50.378Z,0.222
2018-11-01T16:06:50.780Z,0.131
2018-11-01T16:08:49.993Z,0.114
2018-11-01T16:10:51.229Z,0.125
2018-11-01T16:12:50.182Z,0.194
2018-11-01T16:14:50.389Z,0.148
2018-11-01T16:16:50.682Z,0.239
2018-11-01T16:18:49.932Z,0.239
2018-11-01T16:20:50.696Z,0.245
2018-11-01T16:22:49.934Z,0.165
2018-11-01T16:24:50.251Z,0.211
2018-11-01T16:26:51.106Z,0.222
2018-11-01T16:28:50.495Z,0.251
2018-11-01T16:30:50.622Z,0.194
2018-11-01T16:32:49.862Z,0.205
2018-11-01T16:34:50.494Z,0.154
2018-11-01T16:36:50.187Z,0.228
2018-11-01T16:38:50.464Z,0.143
2018-11-01T16:40:50.658Z,0.234
2018-11-01T16:42:50.833Z,0.262
2018-11-01T16:44:50.462Z,0.165
2018-11-01T16:46:49.904Z,0.200
2018-11-01T16:48:50.176Z,0.245
2018-11-01T16:50:50.759Z,0.217
2018-11-01T16:52:51.194Z,0.188
2018-11-01T16:54:50.044Z,0.188
2018-11-01T16:56:50.451Z,0.217
2018-11-01T16:58:50.584Z,0.217
2018-11-01T17:00:49.825Z,0.257
2018-11-01T17:02:50.631Z,0.257
2018-11-01T17:06:50.526Z,0.171
2018-11-01T17:08:50.795Z,0.194
2018-11-01T17:10:50.023Z,0.211
2018-11-01T17:12:50.295Z,0.217
2018-11-01T17:14:50.709Z,0.217
2018-11-01T17:16:50.174Z,0.217
2018-11-01T17:22:50.483Z,0.154
2018-11-01T17:24:50.999Z,0.182
2018-11-01T17:26:50.530Z,0.143
2018-11-01T17:28:50.868Z,0.143
2018-11-01T17:30:50.032Z,0.148
2018-11-01T17:32:50.272Z,0.148
2018-11-01T17:34:51.840Z,0.148
2018-11-01T17:36:50.010Z,0.154
2018-11-01T17:38:50.208Z,0.154
2018-11-01T17:44:51.329Z,0.200
2018-11-01T17:46:50.142Z,0.200
2018-11-01T17:58:50.736Z,0.245
2018-11-01T18:00:49.998Z,0.182
2018-11-01T18:02:51.139Z,0.182
2018-11-01T18:04:49.981Z,0.262
2018-11-01T18:06:50.374Z,0.251
2018-11-01T18:08:51.075Z,0.200
2018-11-01T18:10:50.591Z,0.262
2018-11-01T18:12:49.839Z,0.245
2018-11-01T18:14:50.106Z,0.245
2018-11-01T18:24:49.848Z,0.188
2018-11-01T18:26:50.973Z,0.279
2018-11-01T18:28:51.163Z,0.200
2018-11-01T18:30:50.549Z,0.200
2018-11-01T18:32:52.462Z,0.239
2018-11-01T18:34:50.708Z,0.239
2018-11-01T18:36:50.092Z,0.239
2018-11-01T18:48:49.828Z,0.268
2018-11-01T18:50:50.012Z,0.165
2018-11-01T18:52:50.172Z,0.165
2018-11-01T18:54:50.473Z,0.228
2018-11-01T18:56:49.923Z,0.148
2018-11-01T18:58:50.092Z,0.217
2018-11-01T19:00:50.937Z,0.217
2018-11-01T19:02:50.617Z,0.217
2018-11-01T19:14:50.537Z,0.262
2018-11-01T19:16:49.835Z,0.262
2018-11-01T19:18:50.411Z,0.239
2018-11-01T19:20:50.676Z,0.239
2018-11-01T19:22:49.954Z,0.217
2018-11-01T19:24:50.212Z,0.217
2018-11-01T19:44:50.436Z,0.165
2018-11-01T19:46:50.235Z,0.165
2018-11-01T19:48:50.519Z,0.154
2018-11-01T19:50:51.859Z,0.154
2018-11-01T19:52:51.001Z,0.182
2018-11-01T19:54:51.403Z,0.177
2018-11-01T19:56:50.457Z,0.177
2018-11-01T20:14:50.567Z,0.188
2018-11-01T20:16:50.404Z,0.188
2018-11-01T20:18:51.779Z,0.120
2018-11-01T20:20:50.294Z,0.177
2018-11-01T20:22:50.544Z,0.177
2018-11-01T20:24:50.834Z,0.177
2018-11-01T20:40:50.311Z,0.182
2018-11-01T20:42:51.578Z,0.222
2018-11-01T20:44:50.400Z,0.188
2018-11-01T20:46:50.846Z,0.188
2018-11-01T20:48:50.093Z,0.171
2018-11-01T20:50:50.549Z,0.262
2018-11-01T20:52:50.858Z,0.251
2018-11-01T20:54:50.149Z,0.217
2018-11-01T20:56:50.495Z,0.222
2018-11-01T20:58:49.882Z,0.245
2018-11-01T21:00:50.104Z,0.245
2018-11-01T21:02:50.398Z,0.200
2018-11-01T21:04:50.443Z,0.222
2018-11-01T21:06:50.270Z,0.222
2018-11-01T21:08:50.508Z,0.222
2018-11-01T21:10:52.031Z,0.171
2018-11-01T21:12:50.713Z,0.171
2018-11-01T21:14:49.990Z,0.171
2018-11-01T21:32:50.507Z,0.177
2018-11-01T21:34:51.050Z,0.188
2018-11-01T21:36:50.341Z,0.188
2018-11-01T21:38:50.552Z,0.188
2018-11-01T21:40:50.804Z,0.217
2018-11-01T21:42:50.100Z,0.285
2018-11-01T21:44:51.451Z,0.285
2018-11-01T21:46:50.560Z,0.205
2018-11-01T21:48:49.889Z,0.205
2018-11-01T21:50:50.027Z,0.205
2018-11-01T21:52:50.636Z,0.137
2018-11-01T21:54:51.039Z,0.228
2018-11-01T21:56:50.056Z,0.228
2018-11-01T22:14:50.111Z,0.194
2018-11-01T22:16:50.603Z,0.194
2018-11-01T22:18:49.974Z,0.194
2018-11-01T22:38:50.968Z,0.171
2018-11-01T22:40:50.635Z,0.234
2018-11-01T22:42:49.858Z,0.234
2018-11-01T22:44:50.099Z,0.234
2018-11-01T22:56:51.078Z,0.251
2018-11-01T22:58:49.836Z,0.285
2018-11-01T23:00:49.963Z,0.160
2018-11-01T23:02:50.253Z,0.160
2018-11-01T23:04:50.660Z,0.245
2018-11-01T23:06:50.971Z,0.177
2018-11-01T23:08:50.270Z,0.177
2018-11-01T23:10:50.427Z,0.222
2018-11-01T23:12:50.648Z,0.222
2018-11-01T23:14:49.972Z,0.222
2018-11-01T23:18:50.497Z,0.217
2018-11-01T23:20:50.830Z,0.217
2018-11-01T23:22:50.036Z,0.217
2018-11-01T23:26:50.591Z,0.262
2018-11-01T23:28:49.923Z,0.165
2018-11-01T23:30:50.233Z,0.165
2018-11-01T23:38:50.506Z,0.160
2018-11-01T23:40:50.794Z,0.160
2018-11-01T23:42:50.041Z,0.205
2018-11-01T23:44:50.289Z,0.211
2018-11-01T23:46:50.671Z,0.222
2018-11-01T23:48:49.851Z,0.257
2018-11-01T23:50:50.274Z,0.194
2018-11-01T23:52:50.479Z,0.205
2018-11-01T23:54:50.666Z,0.143
2018-11-01T23:56:50.216Z,0.200
2018-11-01T23:58:51.472Z,0.251
